Monday, July 23, 2018, 2:07 AM EDT
Back to Local

KJYO, Leesburg / Godfrey

Location: Leesburg, VA, United States Lat: 39.083
Local Time: 2:07 AM EDT ( 6:07 GMT) Lon: -77.567
Time Zone: US/Eastern Elev: 390 ft

Show me the last for .
Show Decoded

2018-07-23 01:35 METAR KJYO 230535Z AUTO 04003KT 10SM -RA OVC008 21/21 A2989 RMK AO2 LTG DSNT NE
                 AND E =
2018-07-23 01:15 METAR KJYO 230515Z AUTO 01006KT 10SM OVC008 21/21 A2989 RMK AO2 LTG DSNT E AND
                 SW =
2018-07-23 00:55 METAR KJYO 230455Z AUTO 02005KT 10SM OVC008 21/21 A2990 RMK AO2 LTG DSNT NE THRU
                 SE =
2018-07-23 00:35 METAR KJYO 230435Z AUTO 03003KT 10SM OVC008 21/21 A2990 RMK AO2 LTG DSNT NE AND
                 SE =
2018-07-23 00:15 METAR KJYO 230415Z AUTO 03004KT 10SM OVC012 21/21 A2990 RMK AO2 LTG DSNT NE AND
                 E =
2018-07-22 23:55 METAR KJYO 230355Z AUTO 05003KT 10SM OVC016 21/21 A2990 RMK AO2 =
2018-07-22 23:35 METAR KJYO 230335Z AUTO 00000KT 10SM OVC018 21/21 A2991 RMK AO2 =
2018-07-22 23:15 METAR KJYO 230315Z AUTO 00000KT 10SM VCTS BKN018 OVC024 21/21 A2991 RMK AO2 LTG
                 DSNT NE =
2018-07-22 22:55 METAR KJYO 230255Z AUTO 08003KT 10SM SCT024 SCT032 SCT043 21/21 A2990 RMK AO2 =
2018-07-22 22:35 METAR KJYO 230235Z AUTO 05003KT 10SM SCT043 21/21 A2990 RMK AO2 LTG DSNT NE AND
                 E =
2018-07-22 22:15 METAR KJYO 230215Z AUTO 07004KT 10SM VCTS SCT010 SCT027 SCT110 21/21 A2990 RMK
                 AO2 LTG DSNT NE AND E =
2018-07-22 21:55 METAR KJYO 230155Z AUTO 08004KT 10SM VCTS SCT010 SCT043 SCT060 22/22 A2989 RMK
                 AO2 LTG DSNT NE AND E =
2018-07-22 21:35 METAR KJYO 230135Z AUTO 11007KT 10SM VCTS SCT043 BKN060 22/22 A2990 RMK AO2 LTG
                 DSNT NE THRU S =
2018-07-22 21:15 METAR KJYO 230115Z AUTO 11006KT 10SM CLR 22/22 A2988 RMK AO2 LTG DSNT NE THRU S
                 =
2018-07-22 20:55 METAR KJYO 230055Z AUTO 09005KT 10SM CLR 22/22 A2987 RMK AO2 LTG DSNT NE AND S =
2018-07-22 20:35 METAR KJYO 230035Z AUTO 08004KT 7SM -RA SCT090 SCT110 23/23 A2986 RMK AO2 LTG
                 DSNT S =
2018-07-22 20:15 METAR KJYO 230015Z AUTO 11004KT 10SM -RA SCT120 24/22 A2986 RMK AO2 =
2018-07-22 19:55 METAR KJYO 222355Z AUTO 11003KT 10SM VCTS SCT037 SCT055 BKN120 25/22 A2986 RMK
                 AO2 LTG DSNT SW =
2018-07-22 19:35 METAR KJYO 222335Z AUTO 09004KT 10SM SCT024 SCT036 SCT045 25/22 A2984 RMK AO2
                 LTG DSNT SW =
2018-07-22 19:15 METAR KJYO 222315Z AUTO 12010KT 10SM SCT018 BKN023 OVC046 25/22 A2985 RMK AO2
                 LTG DSNT E AND S =
2018-07-22 18:55 METAR KJYO 222255Z AUTO 08006KT 10SM SCT018 BKN024 OVC041 25/22 A2985 RMK AO2
                 LTG DSNT E AND SE =
2018-07-22 18:35 METAR KJYO 222235Z AUTO 08008KT 10SM SCT018 SCT023 BKN042 25/22 A2984 RMK AO2
                 LTG DSNT E AND SE =
2018-07-22 18:15 METAR KJYO 222215Z AUTO 09003KT 10SM BKN021 BKN031 26/22 A2984 RMK AO2 LTG DSNT
                 SE =
2018-07-22 17:55 METAR KJYO 222155Z AUTO 07003KT 10SM SCT021 SCT033 26/22 A2984 RMK AO2 =
2018-07-22 17:35 METAR KJYO 222135Z AUTO 00000KT 10SM SCT017 SCT027 SCT035 26/22 A2983 RMK AO2 =
2018-07-22 17:15 METAR KJYO 222115Z AUTO 08004KT 10SM SCT017 SCT031 BKN037 26/22 A2983 RMK AO2 =
2018-07-22 16:55 METAR KJYO 222055Z AUTO 00000KT 10SM SCT017 SCT026 25/22 A2983 RMK AO2 =
2018-07-22 16:35 METAR KJYO 222035Z AUTO 00000KT 10SM BKN015 BKN024 BKN029 25/22 A2984 RMK AO2
                 LTG DSNT E =
2018-07-22 16:15 METAR KJYO 222015Z AUTO 00000KT 10SM BKN013 BKN024 BKN045 24/22 A2984 RMK AO2 =
2018-07-22 15:55 METAR KJYO 221955Z AUTO 00000KT 10SM BKN013 BKN022 OVC048 23/22 A2985 RMK AO2
                 LTG DSNT NE AND SW =
2018-07-22 15:35 METAR KJYO 221935Z AUTO 00000KT 10SM SCT022 BKN050 OVC100 23/22 A2984 RMK AO2 =
2018-07-22 15:15 METAR KJYO 221915Z AUTO 00000KT 10SM TS SCT008 BKN028 OVC050 22/21 A2984 RMK AO2
                 =
2018-07-22 14:55 METAR KJYO 221855Z AUTO 00000KT 10SM SCT008 BKN017 OVC028 22/21 A2984 RMK AO2
                 LTG DSNT SE =
2018-07-22 14:35 METAR KJYO 221835Z AUTO 13003KT 5SM -RA OVC019 22/21 A2984 RMK AO2 LTG DSNT E
                 AND SE =
2018-07-22 14:15 METAR KJYO 221815Z AUTO 10004KT 10SM RA OVC021 22/21 A2984 RMK AO2 =
2018-07-22 13:55 METAR KJYO 221755Z AUTO 05004KT 10SM RA OVC021 23/21 A2984 RMK AO2 =
2018-07-22 13:35 METAR KJYO 221735Z AUTO 07005KT 10SM -RA OVC021 23/21 A2985 RMK AO2 =
2018-07-22 13:15 METAR KJYO 221715Z AUTO 12005KT 10SM BKN023 OVC027 23/20 A2985 RMK AO2 =
2018-07-22 12:55 METAR KJYO 221655Z AUTO 13008KT 10SM OVC023 23/20 A2985 RMK AO2 =
2018-07-22 12:35 METAR KJYO 221635Z AUTO 11005KT 10SM BKN021 BKN026 OVC030 23/20 A2985 RMK AO2 =
2018-07-22 12:15 METAR KJYO 221615Z AUTO 14004KT 10SM SCT019 OVC030 23/19 A2985 RMK AO2 =
2018-07-22 11:55 METAR KJYO 221555Z AUTO 15006KT 10SM BKN019 OVC028 22/19 A2985 RMK AO2 =
2018-07-22 11:35 METAR KJYO 221535Z AUTO 15008KT 10SM BKN017 OVC030 23/19 A2985 RMK AO2 =
2018-07-22 11:15 METAR KJYO 221515Z AUTO 15007KT 10SM OVC017 22/18 A2985 RMK AO2 =
2018-07-22 10:55 METAR KJYO 221455Z AUTO 16007KT 10SM BKN015 BKN036 OVC048 22/18 A2985 RMK AO2 =
2018-07-22 10:35 METAR KJYO 221435Z AUTO 16006KT 10SM BKN013 OVC036 21/18 A2985 RMK AO2 =
2018-07-22 10:15 METAR KJYO 221415Z AUTO 17007KT 10SM BKN011 BKN025 OVC036 21/18 A2985 RMK AO2
                 LTG DSNT SE =
2018-07-22 09:55 METAR KJYO 221355Z AUTO 16006KT 10SM OVC011 20/18 A2985 RMK AO2 =
2018-07-22 09:35 METAR KJYO 221335Z AUTO 16004KT 10SM OVC011 20/17 A2985 RMK AO2 =
2018-07-22 09:15 METAR KJYO 221315Z AUTO 15007KT 10SM BKN011 BKN032 18/17 A2985 RMK AO2 LTG DSNT
                 SW =
2018-07-22 08:55 METAR KJYO 221255Z AUTO 00000KT 10SM SCT014 18/17 A2984 RMK AO2 =
2018-07-22 08:35 METAR KJYO 221235Z AUTO 00000KT 10SM SCT005 BKN014 17/16 A2983 RMK AO2 =
2018-07-22 08:15 METAR KJYO 221215Z AUTO 00000KT 10SM BKN016 16/16 A2982 RMK AO2 =
2018-07-22 07:55 METAR KJYO 221155Z AUTO 15004KT 10SM SCT018 16/16 A2982 RMK AO2 =
2018-07-22 07:35 METAR KJYO 221135Z AUTO 15004KT 10SM CLR 15/15 A2980 RMK AO2 =
2018-07-22 07:15 METAR KJYO 221115Z AUTO 00000KT 10SM CLR 15/15 A2978 RMK AO2 =
2018-07-22 06:55 METAR KJYO 221055Z AUTO 00000KT 10SM CLR 15/15 A2978 RMK AO2 =
2018-07-22 06:35 METAR KJYO 221035Z AUTO 00000KT 10SM CLR 14/14 A2977 RMK AO2 LTG DSNT N =
2018-07-22 06:15 METAR KJYO 221015Z AUTO 00000KT 10SM CLR 14/14 A2977 RMK AO2 =
2018-07-22 05:55 METAR KJYO 220955Z AUTO 00000KT 10SM CLR 14/14 A2976 RMK AO2 =
2018-07-22 05:35 METAR KJYO 220935Z AUTO 20004KT 10SM CLR 14/14 A2977 RMK AO2 =
2018-07-22 05:15 METAR KJYO 220915Z AUTO 00000KT 10SM CLR 15/15 A2975 RMK AO2 =
2018-07-22 04:55 METAR KJYO 220855Z AUTO 00000KT 10SM CLR 15/15 A2974 RMK AO2 =
2018-07-22 04:35 METAR KJYO 220835Z AUTO 00000KT 10SM CLR 15/15 A2974 RMK AO2 =
2018-07-22 04:15 METAR KJYO 220815Z AUTO 24003KT 10SM SCT009 15/15 A2973 RMK AO2 =
2018-07-22 03:55 METAR KJYO 220755Z AUTO 28006KT 10SM BKN009 15/15 A2972 RMK AO2 =
2018-07-22 03:35 METAR KJYO 220735Z AUTO 27008KT 10SM BKN009 15/15 A2972 RMK AO2 =
2018-07-22 03:15 METAR KJYO 220715Z AUTO 30008KT 10SM SCT009 SCT070 BKN110 15/15 A2971 RMK AO2 =
2018-07-22 02:55 METAR KJYO 220655Z AUTO 30007KT 10SM SCT019 SCT070 OVC110 15/15 A2971 RMK AO2 =
2018-07-22 02:35 METAR KJYO 220635Z AUTO 31009KT 10SM SCT007 OVC018 15/15 A2971 RMK AO2 =
2018-07-22 02:15 METAR KJYO 220615Z AUTO 30010G15KT 10SM BKN007 OVC016 15/15 A2971 RMK AO2 =

Support USWX by starting your Amazon purchase here.